sensor_id;sensor_type;location;lat;lon;timestamp;P1;durP1;ratioP1;P2;durP2;ratioP2
43801;SDS011;29429;51.074;13.764;2023-02-01T00:01:05;8.98;;;3.75;;
43801;SDS011;29429;51.074;13.764;2023-02-01T00:03:35;7.75;;;3.80;;
43801;SDS011;29429;51.074;13.764;2023-02-01T00:06:03;8.35;;;3.10;;
43801;SDS011;29429;51.074;13.764;2023-02-01T00:08:30;10.95;;;3.40;;
43801;SDS011;29429;51.074;13.764;2023-02-01T00:11:01;7.68;;;3.47;;
43801;SDS011;29429;51.074;13.764;2023-02-01T00:13:32;8.17;;;3.20;;
43801;SDS011;29429;51.074;13.764;2023-02-01T00:18:40;7.53;;;3.17;;
43801;SDS011;29429;51.074;13.764;2023-02-01T00:21:07;11.90;;;3.28;;
43801;SDS011;29429;51.074;13.764;2023-02-01T00:23:37;8.20;;;2.63;;
43801;SDS011;29429;51.074;13.764;2023-02-01T00:26:05;6.47;;;3.00;;
43801;SDS011;29429;51.074;13.764;2023-02-01T00:28:37;13.98;;;3.03;;
43801;SDS011;29429;51.074;13.764;2023-02-01T00:31:04;9.10;;;3.05;;
43801;SDS011;29429;51.074;13.764;2023-02-01T00:33:32;8.15;;;3.05;;
43801;SDS011;29429;51.074;13.764;2023-02-01T00:36:00;9.98;;;2.58;;
43801;SDS011;29429;51.074;13.764;2023-02-01T00:38:30;9.55;;;2.80;;
43801;SDS011;29429;51.074;13.764;2023-02-01T00:41:03;9.20;;;3.17;;
43801;SDS011;29429;51.074;13.764;2023-02-01T00:43:33;11.45;;;2.97;;
43801;SDS011;29429;51.074;13.764;2023-02-01T00:46:01;7.78;;;3.42;;
43801;SDS011;29429;51.074;13.764;2023-02-01T00:48:28;10.98;;;3.08;;
43801;SDS011;29429;51.074;13.764;2023-02-01T00:51:02;12.10;;;3.83;;
43801;SDS011;29429;51.074;13.764;2023-02-01T00:53:35;7.78;;;3.10;;
43801;SDS011;29429;51.074;13.764;2023-02-01T00:56:02;11.55;;;3.05;;
43801;SDS011;29429;51.074;13.764;2023-02-01T00:58:31;9.15;;;3.55;;
43801;SDS011;29429;51.074;13.764;2023-02-01T01:01:07;15.13;;;3.47;;
43801;SDS011;29429;51.074;13.764;2023-02-01T01:03:55;6.93;;;2.63;;
43801;SDS011;29429;51.074;13.764;2023-02-01T01:06:26;9.80;;;2.78;;
43801;SDS011;29429;51.074;13.764;2023-02-01T01:08:58;7.13;;;2.50;;
43801;SDS011;29429;51.074;13.764;2023-02-01T01:11:28;9.30;;;2.72;;
43801;SDS011;29429;51.074;13.764;2023-02-01T01:13:58;8.80;;;2.67;;
43801;SDS011;29429;51.074;13.764;2023-02-01T01:16:27;14.38;;;2.88;;
43801;SDS011;29429;51.074;13.764;2023-02-01T01:18:56;7.85;;;2.60;;
43801;SDS011;29429;51.074;13.764;2023-02-01T01:21:24;12.60;;;2.40;;
43801;SDS011;29429;51.074;13.764;2023-02-01T01:23:52;8.82;;;2.75;;
43801;SDS011;29429;51.074;13.764;2023-02-01T01:26:20;11.57;;;2.65;;
43801;SDS011;29429;51.074;13.764;2023-02-01T01:28:57;9.68;;;2.50;;
43801;SDS011;29429;51.074;13.764;2023-02-01T01:31:25;8.65;;;2.13;;
43801;SDS011;29429;51.074;13.764;2023-02-01T01:33:55;11.13;;;2.55;;
43801;SDS011;29429;51.074;13.764;2023-02-01T01:36:24;7.95;;;2.53;;
43801;SDS011;29429;51.074;13.764;2023-02-01T01:38:53;15.23;;;3.20;;
43801;SDS011;29429;51.074;13.764;2023-02-01T01:41:25;10.32;;;2.40;;
43801;SDS011;29429;51.074;13.764;2023-02-01T01:46:34;8.38;;;2.20;;
43801;SDS011;29429;51.074;13.764;2023-02-01T01:49:14;6.35;;;2.00;;
43801;SDS011;29429;51.074;13.764;2023-02-01T01:54:25;11.57;;;2.30;;
43801;SDS011;29429;51.074;13.764;2023-02-01T01:57:00;7.88;;;2.15;;
43801;SDS011;29429;51.074;13.764;2023-02-01T01:59:38;12.95;;;2.67;;
43801;SDS011;29429;51.074;13.764;2023-02-01T02:02:09;8.90;;;2.05;;
43801;SDS011;29429;51.074;13.764;2023-02-01T02:04:36;10.30;;;2.40;;
43801;SDS011;29429;51.074;13.764;2023-02-01T02:07:07;9.23;;;2.28;;
43801;SDS011;29429;51.074;13.764;2023-02-01T02:09:40;11.48;;;2.25;;
43801;SDS011;29429;51.074;13.764;2023-02-01T02:12:25;10.80;;;2.15;;
43801;SDS011;29429;51.074;13.764;2023-02-01T02:14:51;8.27;;;1.48;;
43801;SDS011;29429;51.074;13.764;2023-02-01T02:32:29;6.07;;;1.80;;
43801;SDS011;29429;51.074;13.764;2023-02-01T02:53:32;11.85;;;2.05;;
43801;SDS011;29429;51.074;13.764;2023-02-01T02:56:37;7.93;;;2.45;;
43801;SDS011;29429;51.074;13.764;2023-02-01T02:59:25;12.88;;;2.28;;
43801;SDS011;29429;51.074;13.764;2023-02-01T03:02:14;10.25;;;2.80;;
43801;SDS011;29429;51.074;13.764;2023-02-01T03:05:01;13.25;;;3.55;;
43801;SDS011;29429;51.074;13.764;2023-02-01T03:10:30;11.50;;;2.70;;
43801;SDS011;29429;51.074;13.764;2023-02-01T03:13:04;12.68;;;2.88;;
43801;SDS011;29429;51.074;13.764;2023-02-01T03:18:16;14.00;;;3.75;;
43801;SDS011;29429;51.074;13.764;2023-02-01T03:20:54;9.00;;;1.90;;
43801;SDS011;29429;51.074;13.764;2023-02-01T03:23:25;9.48;;;2.13;;
43801;SDS011;29429;51.074;13.764;2023-02-01T03:26:00;10.00;;;1.90;;
43801;SDS011;29429;51.074;13.764;2023-02-01T03:28:30;9.98;;;2.50;;
43801;SDS011;29429;51.074;13.764;2023-02-01T03:31:01;10.50;;;2.85;;
43801;SDS011;29429;51.074;13.764;2023-02-01T03:33:29;9.13;;;2.53;;
43801;SDS011;29429;51.074;13.764;2023-02-01T03:39:44;9.48;;;2.22;;
43801;SDS011;29429;51.074;13.764;2023-02-01T03:45:18;10.73;;;2.50;;
43801;SDS011;29429;51.074;13.764;2023-02-01T03:47:48;13.65;;;2.75;;
43801;SDS011;29429;51.074;13.764;2023-02-01T03:50:22;8.80;;;2.33;;
43801;SDS011;29429;51.074;13.764;2023-02-01T03:53:03;14.00;;;3.85;;
43801;SDS011;29429;51.074;13.764;2023-02-01T03:55:35;11.55;;;2.50;;
43801;SDS011;29429;51.074;13.764;2023-02-01T03:58:08;9.82;;;2.38;;
43801;SDS011;29429;51.074;13.764;2023-02-01T04:00:39;8.57;;;2.55;;
43801;SDS011;29429;51.074;13.764;2023-02-01T04:03:10;9.68;;;2.75;;
43801;SDS011;29429;51.074;13.764;2023-02-01T04:05:37;8.25;;;2.10;;
43801;SDS011;29429;51.074;13.764;2023-02-01T04:08:06;13.57;;;2.63;;
43801;SDS011;29429;51.074;13.764;2023-02-01T04:10:33;11.02;;;2.25;;
43801;SDS011;29429;51.074;13.764;2023-02-01T04:13:00;11.90;;;2.45;;
43801;SDS011;29429;51.074;13.764;2023-02-01T04:15:27;13.13;;;3.13;;
43801;SDS011;29429;51.074;13.764;2023-02-01T04:17:54;12.32;;;2.00;;
43801;SDS011;29429;51.074;13.764;2023-02-01T04:20:21;12.18;;;2.75;;
43801;SDS011;29429;51.074;13.764;2023-02-01T04:22:49;8.45;;;2.58;;
43801;SDS011;29429;51.074;13.764;2023-02-01T04:25:16;9.35;;;2.55;;
43801;SDS011;29429;51.074;13.764;2023-02-01T04:27:45;12.82;;;2.20;;
43801;SDS011;29429;51.074;13.764;2023-02-01T04:30:12;10.50;;;2.50;;
43801;SDS011;29429;51.074;13.764;2023-02-01T04:32:40;10.55;;;2.88;;
43801;SDS011;29429;51.074;13.764;2023-02-01T04:35:08;11.48;;;2.65;;
43801;SDS011;29429;51.074;13.764;2023-02-01T04:37:35;13.23;;;2.05;;
43801;SDS011;29429;51.074;13.764;2023-02-01T04:40:02;11.63;;;2.97;;
43801;SDS011;29429;51.074;13.764;2023-02-01T04:42:30;12.35;;;2.20;;
43801;SDS011;29429;51.074;13.764;2023-02-01T04:44:56;10.35;;;1.92;;
43801;SDS011;29429;51.074;13.764;2023-02-01T04:47:23;12.38;;;2.30;;
43801;SDS011;29429;51.074;13.764;2023-02-01T04:49:50;8.90;;;2.00;;
43801;SDS011;29429;51.074;13.764;2023-02-01T04:52:17;9.90;;;2.55;;
43801;SDS011;29429;51.074;13.764;2023-02-01T04:54:44;8.65;;;2.13;;
43801;SDS011;29429;51.074;13.764;2023-02-01T04:57:11;12.07;;;1.88;;
43801;SDS011;29429;51.074;13.764;2023-02-01T04:59:39;9.23;;;2.42;;
43801;SDS011;29429;51.074;13.764;2023-02-01T05:02:06;12.15;;;3.20;;
43801;SDS011;29429;51.074;13.764;2023-02-01T05:04:33;11.00;;;2.03;;
43801;SDS011;29429;51.074;13.764;2023-02-01T05:07:00;14.30;;;2.85;;
43801;SDS011;29429;51.074;13.764;2023-02-01T05:09:28;13.40;;;3.00;;
43801;SDS011;29429;51.074;13.764;2023-02-01T05:11:55;12.75;;;2.58;;
43801;SDS011;29429;51.074;13.764;2023-02-01T05:14:40;10.93;;;2.67;;
43801;SDS011;29429;51.074;13.764;2023-02-01T05:17:07;15.93;;;3.33;;
43801;SDS011;29429;51.074;13.764;2023-02-01T05:19:34;13.20;;;2.17;;
43801;SDS011;29429;51.074;13.764;2023-02-01T05:22:01;10.90;;;2.47;;
43801;SDS011;29429;51.074;13.764;2023-02-01T05:24:28;12.10;;;2.90;;
43801;SDS011;29429;51.074;13.764;2023-02-01T05:26:55;9.57;;;2.08;;
43801;SDS011;29429;51.074;13.764;2023-02-01T05:29:22;9.95;;;2.30;;
43801;SDS011;29429;51.074;13.764;2023-02-01T05:31:49;19.67;;;2.97;;
43801;SDS011;29429;51.074;13.764;2023-02-01T05:34:16;8.77;;;1.80;;
43801;SDS011;29429;51.074;13.764;2023-02-01T05:36:43;10.60;;;2.53;;
43801;SDS011;29429;51.074;13.764;2023-02-01T05:39:10;11.23;;;2.33;;
43801;SDS011;29429;51.074;13.764;2023-02-01T05:41:37;13.20;;;2.50;;
43801;SDS011;29429;51.074;13.764;2023-02-01T05:44:04;13.55;;;3.72;;
43801;SDS011;29429;51.074;13.764;2023-02-01T05:46:34;11.05;;;2.53;;
43801;SDS011;29429;51.074;13.764;2023-02-01T05:49:02;13.18;;;2.80;;
43801;SDS011;29429;51.074;13.764;2023-02-01T05:51:30;16.30;;;2.55;;
43801;SDS011;29429;51.074;13.764;2023-02-01T05:53:58;12.63;;;2.53;;
43801;SDS011;29429;51.074;13.764;2023-02-01T05:56:27;14.73;;;2.67;;
43801;SDS011;29429;51.074;13.764;2023-02-01T05:58:54;8.35;;;2.17;;
43801;SDS011;29429;51.074;13.764;2023-02-01T06:01:21;12.88;;;2.85;;
43801;SDS011;29429;51.074;13.764;2023-02-01T06:03:48;11.32;;;2.15;;
43801;SDS011;29429;51.074;13.764;2023-02-01T06:06:16;12.25;;;2.78;;
43801;SDS011;29429;51.074;13.764;2023-02-01T06:08:45;15.63;;;3.13;;
43801;SDS011;29429;51.074;13.764;2023-02-01T06:11:12;14.18;;;3.03;;
43801;SDS011;29429;51.074;13.764;2023-02-01T06:13:57;10.63;;;2.30;;
43801;SDS011;29429;51.074;13.764;2023-02-01T06:16:24;11.80;;;2.58;;
43801;SDS011;29429;51.074;13.764;2023-02-01T06:18:52;9.05;;;2.65;;
43801;SDS011;29429;51.074;13.764;2023-02-01T06:21:20;10.85;;;2.72;;
43801;SDS011;29429;51.074;13.764;2023-02-01T06:23:51;9.38;;;2.50;;
43801;SDS011;29429;51.074;13.764;2023-02-01T06:26:19;17.27;;;3.10;;
43801;SDS011;29429;51.074;13.764;2023-02-01T06:28:47;8.43;;;2.47;;
43801;SDS011;29429;51.074;13.764;2023-02-01T06:31:14;7.72;;;2.50;;
43801;SDS011;29429;51.074;13.764;2023-02-01T06:33:42;14.52;;;3.42;;
43801;SDS011;29429;51.074;13.764;2023-02-01T06:36:09;12.75;;;3.08;;
43801;SDS011;29429;51.074;13.764;2023-02-01T06:38:38;17.45;;;3.13;;
43801;SDS011;29429;51.074;13.764;2023-02-01T06:41:15;12.10;;;2.75;;
43801;SDS011;29429;51.074;13.764;2023-02-01T06:43:43;12.48;;;3.20;;
43801;SDS011;29429;51.074;13.764;2023-02-01T06:46:12;16.77;;;3.08;;
43801;SDS011;29429;51.074;13.764;2023-02-01T06:48:39;13.38;;;3.13;;
43801;SDS011;29429;51.074;13.764;2023-02-01T06:51:15;10.07;;;3.40;;
43801;SDS011;29429;51.074;13.764;2023-02-01T06:53:51;11.05;;;2.97;;
43801;SDS011;29429;51.074;13.764;2023-02-01T06:56:18;11.30;;;3.35;;
43801;SDS011;29429;51.074;13.764;2023-02-01T06:58:47;15.15;;;2.78;;
43801;SDS011;29429;51.074;13.764;2023-02-01T07:01:15;10.23;;;2.90;;
43801;SDS011;29429;51.074;13.764;2023-02-01T07:03:42;10.60;;;2.40;;
43801;SDS011;29429;51.074;13.764;2023-02-01T07:06:13;15.70;;;3.72;;
43801;SDS011;29429;51.074;13.764;2023-02-01T07:08:40;13.50;;;2.92;;
43801;SDS011;29429;51.074;13.764;2023-02-01T07:11:11;14.77;;;3.25;;
43801;SDS011;29429;51.074;13.764;2023-02-01T07:13:41;9.30;;;2.90;;
43801;SDS011;29429;51.074;13.764;2023-02-01T07:16:10;11.98;;;3.50;;
43801;SDS011;29429;51.074;13.764;2023-02-01T07:18:40;9.85;;;2.60;;
43801;SDS011;29429;51.074;13.764;2023-02-01T07:21:07;15.27;;;2.67;;
43801;SDS011;29429;51.074;13.764;2023-02-01T07:23:34;11.10;;;3.08;;
43801;SDS011;29429;51.074;13.764;2023-02-01T07:26:03;12.95;;;4.38;;
43801;SDS011;29429;51.074;13.764;2023-02-01T07:28:32;14.88;;;3.33;;
43801;SDS011;29429;51.074;13.764;2023-02-01T07:31:03;10.20;;;2.47;;
43801;SDS011;29429;51.074;13.764;2023-02-01T07:33:44;9.50;;;2.95;;
43801;SDS011;29429;51.074;13.764;2023-02-01T07:36:13;13.75;;;3.17;;
43801;SDS011;29429;51.074;13.764;2023-02-01T07:38:43;6.63;;;2.63;;
43801;SDS011;29429;51.074;13.764;2023-02-01T07:41:15;9.82;;;2.70;;
43801;SDS011;29429;51.074;13.764;2023-02-01T07:43:43;12.13;;;3.53;;
43801;SDS011;29429;51.074;13.764;2023-02-01T07:46:13;13.90;;;3.03;;
43801;SDS011;29429;51.074;13.764;2023-02-01T07:48:41;19.75;;;3.03;;
43801;SDS011;29429;51.074;13.764;2023-02-01T07:51:13;10.95;;;3.45;;
43801;SDS011;29429;51.074;13.764;2023-02-01T07:53:47;13.05;;;2.65;;
43801;SDS011;29429;51.074;13.764;2023-02-01T07:56:17;9.07;;;2.92;;
43801;SDS011;29429;51.074;13.764;2023-02-01T07:58:59;9.90;;;2.97;;
43801;SDS011;29429;51.074;13.764;2023-02-01T08:01:27;14.68;;;3.33;;
43801;SDS011;29429;51.074;13.764;2023-02-01T08:03:56;11.52;;;3.17;;
43801;SDS011;29429;51.074;13.764;2023-02-01T08:06:30;10.80;;;2.67;;
43801;SDS011;29429;51.074;13.764;2023-02-01T08:08:59;10.80;;;3.20;;
43801;SDS011;29429;51.074;13.764;2023-02-01T08:11:27;15.05;;;3.17;;
43801;SDS011;29429;51.074;13.764;2023-02-01T08:13:54;12.02;;;3.47;;
43801;SDS011;29429;51.074;13.764;2023-02-01T08:16:22;10.85;;;3.05;;
43801;SDS011;29429;51.074;13.764;2023-02-01T08:18:50;12.93;;;2.90;;
43801;SDS011;29429;51.074;13.764;2023-02-01T08:21:37;10.85;;;2.58;;
43801;SDS011;29429;51.074;13.764;2023-02-01T08:24:36;12.18;;;3.22;;
43801;SDS011;29429;51.074;13.764;2023-02-01T08:27:24;12.63;;;3.00;;
43801;SDS011;29429;51.074;13.764;2023-02-01T08:31:07;9.18;;;2.95;;
43801;SDS011;29429;51.074;13.764;2023-02-01T08:34:33;14.50;;;3.10;;
43801;SDS011;29429;51.074;13.764;2023-02-01T08:37:38;17.08;;;3.58;;
43801;SDS011;29429;51.074;13.764;2023-02-01T08:40:26;9.40;;;2.35;;
43801;SDS011;29429;51.074;13.764;2023-02-01T08:43:01;10.50;;;2.78;;
43801;SDS011;29429;51.074;13.764;2023-02-01T08:45:28;10.27;;;3.88;;
43801;SDS011;29429;51.074;13.764;2023-02-01T08:47:56;9.68;;;2.75;;
43801;SDS011;29429;51.074;13.764;2023-02-01T08:50:24;12.05;;;2.80;;
43801;SDS011;29429;51.074;13.764;2023-02-01T08:52:59;13.10;;;3.15;;
43801;SDS011;29429;51.074;13.764;2023-02-01T08:55:45;9.40;;;2.70;;
43801;SDS011;29429;51.074;13.764;2023-02-01T08:58:16;14.80;;;2.90;;
43801;SDS011;29429;51.074;13.764;2023-02-01T09:00:44;9.27;;;2.30;;
43801;SDS011;29429;51.074;13.764;2023-02-01T09:03:11;13.93;;;2.42;;
43801;SDS011;29429;51.074;13.764;2023-02-01T09:05:39;10.05;;;2.30;;
43801;SDS011;29429;51.074;13.764;2023-02-01T09:08:15;11.00;;;2.58;;
43801;SDS011;29429;51.074;13.764;2023-02-01T09:10:42;10.93;;;2.22;;
43801;SDS011;29429;51.074;13.764;2023-02-01T09:13:13;10.38;;;2.65;;
43801;SDS011;29429;51.074;13.764;2023-02-01T09:15:40;14.75;;;2.40;;
43801;SDS011;29429;51.074;13.764;2023-02-01T09:18:07;11.48;;;2.50;;
43801;SDS011;29429;51.074;13.764;2023-02-01T09:20:36;13.32;;;2.60;;
43801;SDS011;29429;51.074;13.764;2023-02-01T09:23:04;10.55;;;2.80;;
43801;SDS011;29429;51.074;13.764;2023-02-01T09:25:33;14.52;;;2.97;;
43801;SDS011;29429;51.074;13.764;2023-02-01T09:28:04;12.63;;;2.22;;
43801;SDS011;29429;51.074;13.764;2023-02-01T09:30:41;10.45;;;2.60;;
43801;SDS011;29429;51.074;13.764;2023-02-01T09:33:08;7.35;;;2.13;;
43801;SDS011;29429;51.074;13.764;2023-02-01T09:35:35;8.35;;;2.40;;
43801;SDS011;29429;51.074;13.764;2023-02-01T09:38:02;13.73;;;2.60;;
43801;SDS011;29429;51.074;13.764;2023-02-01T09:40:29;8.77;;;2.80;;
43801;SDS011;29429;51.074;13.764;2023-02-01T09:43:00;15.88;;;2.40;;
43801;SDS011;29429;51.074;13.764;2023-02-01T09:48:24;7.90;;;2.67;;
43801;SDS011;29429;51.074;13.764;2023-02-01T09:51:02;9.50;;;2.25;;
43801;SDS011;29429;51.074;13.764;2023-02-01T09:53:38;9.13;;;2.40;;
43801;SDS011;29429;51.074;13.764;2023-02-01T09:56:14;12.02;;;3.13;;
43801;SDS011;29429;51.074;13.764;2023-02-01T10:01:18;8.60;;;2.47;;
43801;SDS011;29429;51.074;13.764;2023-02-01T10:03:49;10.27;;;2.70;;
43801;SDS011;29429;51.074;13.764;2023-02-01T10:06:25;8.65;;;2.20;;
43801;SDS011;29429;51.074;13.764;2023-02-01T10:09:14;6.60;;;2.35;;
43801;SDS011;29429;51.074;13.764;2023-02-01T10:12:16;8.07;;;2.33;;
43801;SDS011;29429;51.074;13.764;2023-02-01T10:22:01;9.23;;;2.95;;
43801;SDS011;29429;51.074;13.764;2023-02-01T10:24:49;7.70;;;2.25;;
43801;SDS011;29429;51.074;13.764;2023-02-01T10:27:33;7.35;;;2.22;;
43801;SDS011;29429;51.074;13.764;2023-02-01T10:30:19;8.50;;;2.38;;
43801;SDS011;29429;51.074;13.764;2023-02-01T10:33:12;10.25;;;3.05;;
43801;SDS011;29429;51.074;13.764;2023-02-01T10:35:44;8.40;;;2.45;;
43801;SDS011;29429;51.074;13.764;2023-02-01T10:38:27;14.02;;;2.55;;
43801;SDS011;29429;51.074;13.764;2023-02-01T10:40:59;12.40;;;3.42;;
43801;SDS011;29429;51.074;13.764;2023-02-01T10:43:37;11.68;;;2.80;;
43801;SDS011;29429;51.074;13.764;2023-02-01T10:46:06;16.38;;;4.22;;
43801;SDS011;29429;51.074;13.764;2023-02-01T10:48:34;9.48;;;3.03;;
43801;SDS011;29429;51.074;13.764;2023-02-01T10:51:06;10.60;;;2.58;;
43801;SDS011;29429;51.074;13.764;2023-02-01T10:53:48;16.40;;;3.38;;
43801;SDS011;29429;51.074;13.764;2023-02-01T10:56:24;11.55;;;2.80;;
43801;SDS011;29429;51.074;13.764;2023-02-01T10:59:02;13.15;;;2.97;;
43801;SDS011;29429;51.074;13.764;2023-02-01T11:01:42;9.40;;;2.90;;
43801;SDS011;29429;51.074;13.764;2023-02-01T11:04:19;7.18;;;2.60;;
43801;SDS011;29429;51.074;13.764;2023-02-01T11:09:52;16.10;;;3.10;;
43801;SDS011;29429;51.074;13.764;2023-02-01T11:12:24;10.25;;;2.83;;
43801;SDS011;29429;51.074;13.764;2023-02-01T11:17:50;14.23;;;2.50;;
43801;SDS011;29429;51.074;13.764;2023-02-01T11:20:25;8.40;;;2.35;;
43801;SDS011;29429;51.074;13.764;2023-02-01T11:23:16;5.85;;;2.28;;
43801;SDS011;29429;51.074;13.764;2023-02-01T11:26:07;10.48;;;2.67;;
43801;SDS011;29429;51.074;13.764;2023-02-01T11:28:56;10.02;;;2.55;;
43801;SDS011;29429;51.074;13.764;2023-02-01T11:31:32;8.52;;;2.90;;
43801;SDS011;29429;51.074;13.764;2023-02-01T11:34:09;9.07;;;2.97;;
43801;SDS011;29429;51.074;13.764;2023-02-01T11:39:26;14.95;;;2.72;;
43801;SDS011;29429;51.074;13.764;2023-02-01T11:44:45;6.95;;;2.53;;
43801;SDS011;29429;51.074;13.764;2023-02-01T11:47:30;10.90;;;3.15;;
43801;SDS011;29429;51.074;13.764;2023-02-01T11:50:12;8.23;;;2.42;;
43801;SDS011;29429;51.074;13.764;2023-02-01T12:09:19;8.63;;;2.22;;
43801;SDS011;29429;51.074;13.764;2023-02-01T12:36:21;15.60;;;3.72;;
43801;SDS011;29429;51.074;13.764;2023-02-01T12:42:18;10.07;;;3.60;;
43801;SDS011;29429;51.074;13.764;2023-02-01T12:47:47;8.70;;;2.40;;
43801;SDS011;29429;51.074;13.764;2023-02-01T12:50:41;12.20;;;3.03;;
43801;SDS011;29429;51.074;13.764;2023-02-01T12:56:44;8.05;;;2.22;;
43801;SDS011;29429;51.074;13.764;2023-02-01T13:02:59;8.15;;;2.20;;
43801;SDS011;29429;51.074;13.764;2023-02-01T13:05:17;8.15;;;2.00;;
43801;SDS011;29429;51.074;13.764;2023-02-01T13:07:59;7.43;;;2.10;;
43801;SDS011;29429;51.074;13.764;2023-02-01T13:10:48;8.80;;;2.05;;
43801;SDS011;29429;51.074;13.764;2023-02-01T13:13:52;9.85;;;2.50;;
43801;SDS011;29429;51.074;13.764;2023-02-01T13:17:14;7.82;;;2.60;;
43801;SDS011;29429;51.074;13.764;2023-02-01T13:19:56;8.82;;;3.15;;
43801;SDS011;29429;51.074;13.764;2023-02-01T13:22:38;9.48;;;2.80;;
43801;SDS011;29429;51.074;13.764;2023-02-01T13:25:13;11.70;;;3.13;;
43801;SDS011;29429;51.074;13.764;2023-02-01T13:28:00;9.63;;;2.42;;
43801;SDS011;29429;51.074;13.764;2023-02-01T13:37:09;8.18;;;2.30;;
43801;SDS011;29429;51.074;13.764;2023-02-01T13:39:59;10.88;;;2.65;;
43801;SDS011;29429;51.074;13.764;2023-02-01T13:42:57;7.75;;;2.33;;
43801;SDS011;29429;51.074;13.764;2023-02-01T13:48:06;8.90;;;1.85;;
43801;SDS011;29429;51.074;13.764;2023-02-01T13:50:49;7.88;;;2.08;;
43801;SDS011;29429;51.074;13.764;2023-02-01T13:53:23;11.10;;;2.30;;
43801;SDS011;29429;51.074;13.764;2023-02-01T13:56:18;8.63;;;2.22;;
43801;SDS011;29429;51.074;13.764;2023-02-01T13:58:47;11.43;;;2.60;;
43801;SDS011;29429;51.074;13.764;2023-02-01T14:03:49;8.23;;;2.35;;
43801;SDS011;29429;51.074;13.764;2023-02-01T14:11:58;8.48;;;1.70;;
43801;SDS011;29429;51.074;13.764;2023-02-01T14:26:21;9.10;;;1.50;;
43801;SDS011;29429;51.074;13.764;2023-02-01T14:29:03;10.27;;;2.38;;
43801;SDS011;29429;51.074;13.764;2023-02-01T14:37:42;7.95;;;1.80;;
43801;SDS011;29429;51.074;13.764;2023-02-01T14:40:28;10.95;;;2.00;;
43801;SDS011;29429;51.074;13.764;2023-02-01T14:42:57;6.55;;;2.10;;
43801;SDS011;29429;51.074;13.764;2023-02-01T14:58:35;10.02;;;2.20;;
43801;SDS011;29429;51.074;13.764;2023-02-01T15:01:21;6.55;;;2.00;;
43801;SDS011;29429;51.074;13.764;2023-02-01T15:03:57;8.00;;;2.00;;
43801;SDS011;29429;51.074;13.764;2023-02-01T15:06:48;6.93;;;2.25;;
43801;SDS011;29429;51.074;13.764;2023-02-01T15:14:47;9.02;;;2.50;;
43801;SDS011;29429;51.074;13.764;2023-02-01T15:17:36;7.82;;;2.85;;
43801;SDS011;29429;51.074;13.764;2023-02-01T15:20:12;5.20;;;2.15;;
43801;SDS011;29429;51.074;13.764;2023-02-01T15:23:26;4.72;;;2.00;;
43801;SDS011;29429;51.074;13.764;2023-02-01T15:25:54;7.50;;;2.13;;
43801;SDS011;29429;51.074;13.764;2023-02-01T15:28:21;6.80;;;2.00;;
43801;SDS011;29429;51.074;13.764;2023-02-01T15:30:54;12.45;;;2.65;;
43801;SDS011;29429;51.074;13.764;2023-02-01T15:33:31;11.73;;;2.40;;
43801;SDS011;29429;51.074;13.764;2023-02-01T15:36:10;7.13;;;2.20;;
43801;SDS011;29429;51.074;13.764;2023-02-01T15:38:46;9.27;;;2.50;;
43801;SDS011;29429;51.074;13.764;2023-02-01T15:41:23;8.23;;;2.38;;
43801;SDS011;29429;51.074;13.764;2023-02-01T15:46:35;8.25;;;2.55;;
43801;SDS011;29429;51.074;13.764;2023-02-01T15:49:15;8.93;;;2.65;;
43801;SDS011;29429;51.074;13.764;2023-02-01T15:52:10;5.95;;;2.22;;
43801;SDS011;29429;51.074;13.764;2023-02-01T15:54:53;10.05;;;2.78;;
43801;SDS011;29429;51.074;13.764;2023-02-01T15:57:26;10.10;;;2.72;;
43801;SDS011;29429;51.074;13.764;2023-02-01T16:02:41;9.10;;;2.50;;
43801;SDS011;29429;51.074;13.764;2023-02-01T16:05:27;14.32;;;2.50;;
43801;SDS011;29429;51.074;13.764;2023-02-01T16:07:57;4.97;;;2.10;;
43801;SDS011;29429;51.074;13.764;2023-02-01T16:10:51;9.50;;;2.45;;
43801;SDS011;29429;51.074;13.764;2023-02-01T16:13:25;6.80;;;1.90;;
43801;SDS011;29429;51.074;13.764;2023-02-01T16:15:52;8.75;;;2.20;;
43801;SDS011;29429;51.074;13.764;2023-02-01T16:18:19;8.00;;;2.28;;
43801;SDS011;29429;51.074;13.764;2023-02-01T16:20:47;9.82;;;2.67;;
43801;SDS011;29429;51.074;13.764;2023-02-01T16:23:14;11.68;;;3.38;;
43801;SDS011;29429;51.074;13.764;2023-02-01T16:25:41;11.73;;;3.45;;
43801;SDS011;29429;51.074;13.764;2023-02-01T16:28:08;8.90;;;3.03;;
43801;SDS011;29429;51.074;13.764;2023-02-01T16:30:36;10.10;;;2.83;;
43801;SDS011;29429;51.074;13.764;2023-02-01T16:33:03;10.23;;;3.20;;
43801;SDS011;29429;51.074;13.764;2023-02-01T16:35:37;9.35;;;2.88;;
43801;SDS011;29429;51.074;13.764;2023-02-01T16:38:05;9.20;;;3.08;;
43801;SDS011;29429;51.074;13.764;2023-02-01T16:40:39;8.18;;;2.75;;
43801;SDS011;29429;51.074;13.764;2023-02-01T16:43:13;8.57;;;2.97;;
43801;SDS011;29429;51.074;13.764;2023-02-01T16:45:46;11.10;;;3.75;;
43801;SDS011;29429;51.074;13.764;2023-02-01T16:50:58;12.73;;;3.65;;
43801;SDS011;29429;51.074;13.764;2023-02-01T16:53:34;7.32;;;3.63;;
43801;SDS011;29429;51.074;13.764;2023-02-01T16:56:22;10.50;;;4.13;;
43801;SDS011;29429;51.074;13.764;2023-02-01T16:58:56;7.60;;;3.28;;
43801;SDS011;29429;51.074;13.764;2023-02-01T17:01:24;12.43;;;3.67;;
43801;SDS011;29429;51.074;13.764;2023-02-01T17:03:52;14.80;;;4.32;;
43801;SDS011;29429;51.074;13.764;2023-02-01T17:06:20;14.07;;;4.78;;
43801;SDS011;29429;51.074;13.764;2023-02-01T17:08:51;7.05;;;2.67;;
43801;SDS011;29429;51.074;13.764;2023-02-01T17:11:21;5.22;;;2.28;;
43801;SDS011;29429;51.074;13.764;2023-02-01T17:13:48;7.22;;;1.98;;
43801;SDS011;29429;51.074;13.764;2023-02-01T17:18:57;3.92;;;1.40;;
43801;SDS011;29429;51.074;13.764;2023-02-01T17:21:34;4.80;;;1.80;;
43801;SDS011;29429;51.074;13.764;2023-02-01T17:24:12;3.60;;;1.75;;
43801;SDS011;29429;51.074;13.764;2023-02-01T17:26:41;3.85;;;1.60;;
43801;SDS011;29429;51.074;13.764;2023-02-01T17:29:10;2.55;;;1.38;;
43801;SDS011;29429;51.074;13.764;2023-02-01T17:31:38;3.30;;;1.30;;
43801;SDS011;29429;51.074;13.764;2023-02-01T17:34:10;4.35;;;1.80;;
43801;SDS011;29429;51.074;13.764;2023-02-01T17:36:41;4.03;;;1.13;;
43801;SDS011;29429;51.074;13.764;2023-02-01T17:39:09;3.63;;;1.65;;
43801;SDS011;29429;51.074;13.764;2023-02-01T17:41:37;2.92;;;0.95;;
43801;SDS011;29429;51.074;13.764;2023-02-01T17:44:03;4.03;;;0.93;;
43801;SDS011;29429;51.074;13.764;2023-02-01T17:46:31;2.63;;;1.00;;
43801;SDS011;29429;51.074;13.764;2023-02-01T17:48:58;3.30;;;1.23;;
43801;SDS011;29429;51.074;13.764;2023-02-01T17:51:26;2.92;;;1.60;;
43801;SDS011;29429;51.074;13.764;2023-02-01T17:53:56;3.85;;;1.65;;
43801;SDS011;29429;51.074;13.764;2023-02-01T17:56:23;3.90;;;2.03;;
43801;SDS011;29429;51.074;13.764;2023-02-01T17:58:51;2.83;;;1.70;;
43801;SDS011;29429;51.074;13.764;2023-02-01T18:01:23;3.50;;;2.20;;
43801;SDS011;29429;51.074;13.764;2023-02-01T18:04:12;3.58;;;1.02;;
43801;SDS011;29429;51.074;13.764;2023-02-01T18:06:44;2.42;;;1.40;;
43801;SDS011;29429;51.074;13.764;2023-02-01T18:09:11;2.67;;;1.40;;
43801;SDS011;29429;51.074;13.764;2023-02-01T18:11:38;4.43;;;1.40;;
43801;SDS011;29429;51.074;13.764;2023-02-01T18:14:08;7.38;;;1.58;;
43801;SDS011;29429;51.074;13.764;2023-02-01T18:16:38;9.55;;;1.90;;
43801;SDS011;29429;51.074;13.764;2023-02-01T18:19:05;5.97;;;1.50;;
43801;SDS011;29429;51.074;13.764;2023-02-01T18:21:43;10.50;;;1.83;;